Overview Statistics Trail Chart Weather Telemetry Raw packets
 

This is the latest recevied weather packets stored in our database for station/object WS4FSC-7. If no packets are shown the sender has not sent any weather packets the latest 10 day(s).

<< 35 36 37 38 39 40 41 >>
Time Temp. Humidity Pressure Rain* Wind** Luminosity Snow
1788272811 32.22° C 70% 1015 hPa - - 243 W/m² -
1788272631 32.22° C 68% 1015 hPa - - 667 W/m² -
1788272450 31.67° C 70% 1015 hPa - - 630 W/m² -
1788271555 30.56° C 75% 1015 hPa - - 525 W/m² -
1788271011 30.56° C 74% 1015 hPa - - 474 W/m² -
1788270832 30.56° C 75% 1015 hPa - - 454 W/m² -
1788270651 30.56° C 75% 1015 hPa - - 446 W/m² -
1788269573 30° C 78% 1014 hPa - - 370 W/m² -
1788269210 30° C 77% 1015 hPa - - 345 W/m² -
1788268490 30° C 79% 1015 hPa - - 274 W/m² -
1788267546 29.44° C 80% 1014 hPa - - 165 W/m² -
1788267411 29.44° C 80% 1014 hPa - - 165 W/m² -
1788267231 29.44° C 81% 1015 hPa - - 155 W/m² -
1788267051 29.44° C 80% 1015 hPa - - 142 W/m² -
1788265431 27.78° C 86% 1014 hPa - - 91 W/m² -
1788265251 27.78° C 87% 1014 hPa - - 91 W/m² -
1788265071 27.78° C 88% 1014 hPa - - 88 W/m² -
1788264890 27.78° C 88% 1014 hPa - - 69 W/m² -
1788264710 27.22° C 89% 1014 hPa - - 71 W/m² -
1788263812 26.67° C 92% 1014 hPa - - 74 W/m² -
1788263274 26.11° C 93% 1014 hPa - - 33 W/m² -
1788262551 26.11° C 93% 1014 hPa - - 21 W/m² -
1788262191 26.11° C 93% 1014 hPa - - 17 W/m² -
1788261831 26.11° C 93% 1014 hPa - - 13 W/m² -
1788260931 26.11° C 93% 1014 hPa - - 5 W/m² -

* Rain since midnight (hover to see other rain measurements)
** Current wind speed in m/s (hover to see current wind gust speed)